createdAt,value
2023-01-13T00:01:48.840Z,8.07
2023-01-13T00:04:52.892Z,11.10
2023-01-13T00:07:55.950Z,10.75
2023-01-13T00:10:59.697Z,9.98
2023-01-13T00:14:02.701Z,12.00
2023-01-13T00:17:06.124Z,10.60
2023-01-13T00:20:11.209Z,7.85
2023-01-13T00:23:14.455Z,9.23
2023-01-13T00:26:22.967Z,10.30
2023-01-13T00:29:26.356Z,10.57
2023-01-13T00:32:29.581Z,15.77
2023-01-13T00:35:32.984Z,12.95
2023-01-13T00:38:36.735Z,12.13
2023-01-13T00:41:58.725Z,11.12
2023-01-13T00:45:01.890Z,10.48
2023-01-13T00:48:05.220Z,11.05
2023-01-13T00:51:10.220Z,7.72
2023-01-13T00:54:13.626Z,10.80
2023-01-13T00:57:16.821Z,10.35
2023-01-13T01:00:20.422Z,8.57
2023-01-13T01:03:23.382Z,9.65
2023-01-13T01:06:27.442Z,9.75
2023-01-13T01:09:33.666Z,10.98
2023-01-13T01:12:36.970Z,13.62
2023-01-13T01:15:41.399Z,10.18
2023-01-13T01:18:46.341Z,11.50
2023-01-13T01:21:49.910Z,10.82
2023-01-13T01:24:53.201Z,10.88
2023-01-13T01:27:57.665Z,10.80
2023-01-13T01:31:03.462Z,14.55
2023-01-13T01:34:06.901Z,12.23
2023-01-13T01:37:10.885Z,12.25
2023-01-13T01:40:14.071Z,12.02
2023-01-13T01:43:39.171Z,9.95
2023-01-13T01:46:43.529Z,14.45
2023-01-13T01:49:47.180Z,11.95
2023-01-13T01:52:57.731Z,12.70
2023-01-13T01:56:01.143Z,13.00
2023-01-13T01:59:04.547Z,15.18
2023-01-13T02:02:08.567Z,11.40
2023-01-13T02:05:12.243Z,16.62
2023-01-13T02:08:15.560Z,15.27
2023-01-13T02:11:54.620Z,14.10
2023-01-13T02:15:09.844Z,12.10
2023-01-13T02:18:34.540Z,14.07
2023-01-13T02:22:02.362Z,15.52
2023-01-13T02:25:27.627Z,13.23
2023-01-13T02:29:08.974Z,14.25
2023-01-13T02:32:25.239Z,14.20
2023-01-13T02:35:37.225Z,13.48
2023-01-13T02:39:22.373Z,15.32
2023-01-13T02:42:51.868Z,12.02
2023-01-13T02:46:03.485Z,11.85
2023-01-13T02:49:11.026Z,12.23
2023-01-13T02:52:23.958Z,12.75
2023-01-13T02:55:47.056Z,13.00
2023-01-13T02:58:51.081Z,12.15
2023-01-13T03:01:56.356Z,11.20
2023-01-13T03:05:00.865Z,9.80
2023-01-13T03:08:11.826Z,13.02
2023-01-13T03:11:17.633Z,11.88
2023-01-13T03:14:36.621Z,10.10
2023-01-13T03:17:42.858Z,12.13
2023-01-13T03:21:04.879Z,14.38
2023-01-13T03:24:14.367Z,10.27
2023-01-13T03:27:27.743Z,9.65
2023-01-13T03:30:36.349Z,12.70
2023-01-13T03:33:52.881Z,11.70
2023-01-13T03:36:57.788Z,11.15
2023-01-13T03:40:07.672Z,8.07
2023-01-13T03:43:34.365Z,10.43
2023-01-13T03:46:44.363Z,9.07
2023-01-13T03:50:00.147Z,10.65
2023-01-13T03:53:07.828Z,11.73
2023-01-13T03:56:16.464Z,12.13
2023-01-13T03:59:23.916Z,10.70
2023-01-13T04:02:47.489Z,9.88
2023-01-13T04:05:57.731Z,10.80
2023-01-13T04:09:15.162Z,10.82
2023-01-13T04:13:03.077Z,8.25
2023-01-13T04:16:07.788Z,7.90
2023-01-13T04:19:11.079Z,9.48
2023-01-13T04:22:15.363Z,9.57
2023-01-13T04:25:18.708Z,7.93
2023-01-13T04:28:22.801Z,9.57
2023-01-13T04:34:30.367Z,9.25
2023-01-13T04:37:33.815Z,7.80
2023-01-13T04:40:36.854Z,10.20
2023-01-13T04:43:40.150Z,9.27
2023-01-13T04:46:43.113Z,10.35
2023-01-13T04:49:46.320Z,8.10
2023-01-13T04:52:53.479Z,10.20
2023-01-13T04:55:56.641Z,9.25
2023-01-13T04:58:59.520Z,10.00
2023-01-13T05:02:02.903Z,8.57
2023-01-13T05:05:07.123Z,9.45
2023-01-13T05:08:10.930Z,11.67
2023-01-13T05:11:33.409Z,10.80
2023-01-13T05:14:55.309Z,10.32
2023-01-13T05:17:58.572Z,12.27
2023-01-13T05:21:02.416Z,8.98
2023-01-13T05:24:24.113Z,8.80
2023-01-13T05:27:27.786Z,8.98
2023-01-13T05:30:33.411Z,11.88
2023-01-13T05:33:37.095Z,12.70
2023-01-13T05:36:40.089Z,9.93
2023-01-13T05:40:02.323Z,10.82
2023-01-13T05:43:20.194Z,10.55
2023-01-13T05:46:24.668Z,13.13
2023-01-13T05:49:27.663Z,11.02
2023-01-13T05:52:31.023Z,11.57
2023-01-13T05:55:35.355Z,7.55
2023-01-13T05:58:40.245Z,9.45
2023-01-13T06:01:43.416Z,11.13
2023-01-13T06:04:48.109Z,13.35
2023-01-13T06:07:51.041Z,9.48
2023-01-13T06:10:54.577Z,9.65
2023-01-13T06:14:02.471Z,13.90
2023-01-13T06:17:10.964Z,10.23
2023-01-13T06:20:15.362Z,9.18
2023-01-13T06:23:19.151Z,9.68
2023-01-13T06:26:24.185Z,10.73
2023-01-13T06:29:27.768Z,12.25
2023-01-13T06:32:34.441Z,14.07
2023-01-13T06:35:39.763Z,18.65
2023-01-13T06:38:44.801Z,39.72
2023-01-13T06:45:10.687Z,18.35
2023-01-13T06:48:14.503Z,16.25
2023-01-13T06:51:17.464Z,17.48
2023-01-13T06:54:20.676Z,16.52
2023-01-13T06:57:24.226Z,13.60
2023-01-13T07:00:28.811Z,12.65
2023-01-13T07:03:31.870Z,12.90
2023-01-13T07:06:35.411Z,15.15
2023-01-13T07:09:38.506Z,12.15
2023-01-13T07:13:00.774Z,10.52
2023-01-13T07:16:06.077Z,11.80
2023-01-13T07:19:09.522Z,12.02
2023-01-13T07:22:14.010Z,14.23
2023-01-13T07:25:17.193Z,13.68
2023-01-13T07:28:20.260Z,13.07
2023-01-13T07:31:26.138Z,16.67
2023-01-13T07:34:30.599Z,15.98
2023-01-13T07:37:35.714Z,17.87
2023-01-13T07:40:41.382Z,17.35
2023-01-13T07:43:44.691Z,15.85
2023-01-13T07:46:48.686Z,14.27
2023-01-13T07:49:52.170Z,14.68
2023-01-13T07:52:58.594Z,13.70
2023-01-13T07:56:03.478Z,11.82
2023-01-13T07:59:06.355Z,13.43
2023-01-13T08:02:13.269Z,14.70
2023-01-13T08:05:16.724Z,16.67
2023-01-13T08:08:20.150Z,15.95
2023-01-13T08:11:23.750Z,17.23
2023-01-13T08:14:26.508Z,17.87
2023-01-13T08:17:29.723Z,16.92
2023-01-13T08:20:32.931Z,18.87
2023-01-13T08:23:36.795Z,13.98
2023-01-13T08:26:39.705Z,17.85
2023-01-13T08:29:42.894Z,18.02
2023-01-13T08:32:47.637Z,16.67
2023-01-13T08:35:53.415Z,14.40
2023-01-13T08:38:57.638Z,16.70
2023-01-13T08:42:00.994Z,16.73
2023-01-13T08:45:06.234Z,13.77
2023-01-13T08:48:10.354Z,16.48
2023-01-13T08:51:13.475Z,20.50
2023-01-13T08:54:17.265Z,21.00
2023-01-13T08:57:20.563Z,26.62
2023-01-13T09:00:23.946Z,31.05
2023-01-13T09:03:27.067Z,29.35
2023-01-13T09:06:30.415Z,27.62
2023-01-13T09:09:34.148Z,26.70
2023-01-13T09:12:56.001Z,19.37
2023-01-13T09:16:00.475Z,23.05
2023-01-13T09:19:03.991Z,10.20
2023-01-13T09:22:07.121Z,11.40
2023-01-13T09:25:12.687Z,9.38
2023-01-13T09:31:18.747Z,7.72
2023-01-13T09:34:40.428Z,10.77
2023-01-13T09:37:44.813Z,7.93
2023-01-13T09:40:49.924Z,8.77
2023-01-13T09:43:57.949Z,8.32
2023-01-13T09:47:04.857Z,9.15
2023-01-13T09:50:14.202Z,9.52
2023-01-13T09:53:25.529Z,7.47
2023-01-13T09:56:29.006Z,12.75
2023-01-13T09:59:36.514Z,8.90
2023-01-13T10:02:52.131Z,9.35
2023-01-13T10:06:10.812Z,6.97
2023-01-13T10:09:27.675Z,8.23
2023-01-13T10:12:49.824Z,11.07
2023-01-13T10:15:57.090Z,8.05
2023-01-13T10:19:03.374Z,7.78
2023-01-13T10:22:28.004Z,9.98
2023-01-13T10:25:36.860Z,10.32
2023-01-13T10:28:39.752Z,10.88
2023-01-13T10:31:42.915Z,13.07
2023-01-13T10:34:51.322Z,13.32
2023-01-13T10:37:56.995Z,10.95
2023-01-13T10:41:02.095Z,13.93
2023-01-13T10:44:16.396Z,10.80
2023-01-13T10:47:28.140Z,12.45
2023-01-13T10:50:35.265Z,11.07
2023-01-13T10:54:00.616Z,12.27
2023-01-13T10:57:19.314Z,13.60
2023-01-13T11:00:33.903Z,10.98
2023-01-13T11:03:41.596Z,12.73
2023-01-13T11:06:47.345Z,14.32
2023-01-13T11:10:03.908Z,10.93
2023-01-13T11:13:24.122Z,11.85
2023-01-13T11:16:28.369Z,11.23
2023-01-13T11:19:32.608Z,22.77
2023-01-13T11:22:41.575Z,11.93
2023-01-13T11:25:47.675Z,8.32
2023-01-13T11:28:58.133Z,9.73
2023-01-13T11:32:09.750Z,10.10
2023-01-13T11:35:18.993Z,11.43
2023-01-13T11:38:44.531Z,10.77
